<?xml version='1.0' encoding='UTF-8'?>
<gpx xmlns="http://www.topografix.com/GPX/1/1" creator="www.balnam.be" version="1.1" xmlns:xsi="http://www.w3.org/2001/XMLSchema-instance" xsi:schemaLocation="http://www.topografix.com/GPX/1/1 http://www.topografix.com/GPX/1/1/gpx.xsd">
<trk>
<name>hdobg11</name>
<cmt>v</cmt>
<desc>Blaugies Chemin n°11 </desc>
<link href="https://chemins.be/blaugies/chemin/11"/><trkseg>
<trkpt lat="50.364630" lon="3.823097"><time>2026-05-04T17:03:38Z</time></trkpt>
<trkpt lat="50.364706" lon="3.823321"><time>2026-05-04T17:13:38Z</time></trkpt>
<trkpt lat="50.364766" lon="3.823478"><time>2026-05-04T17:23:38Z</time></trkpt>
<trkpt lat="50.364839" lon="3.823631"><time>2026-05-04T17:33:38Z</time></trkpt>
<trkpt lat="50.364915" lon="3.823787"><time>2026-05-04T17:43:38Z</time></trkpt>
<trkpt lat="50.364983" lon="3.823931"><time>2026-05-04T17:53:38Z</time></trkpt>
<trkpt lat="50.365038" lon="3.824048"><time>2026-05-04T18:03:38Z</time></trkpt>
<trkpt lat="50.365078" lon="3.824163"><time>2026-05-04T18:13:38Z</time></trkpt>
<trkpt lat="50.365106" lon="3.824304"><time>2026-05-04T18:23:38Z</time></trkpt>
<trkpt lat="50.365122" lon="3.824458"><time>2026-05-04T18:33:38Z</time></trkpt>
<trkpt lat="50.365137" lon="3.824680"><time>2026-05-04T18:43:38Z</time></trkpt>
<trkpt lat="50.365141" lon="3.824873"><time>2026-05-04T18:53:38Z</time></trkpt>
<trkpt lat="50.365135" lon="3.825085"><time>2026-05-04T19:03:38Z</time></trkpt>
<trkpt lat="50.365117" lon="3.825272"><time>2026-05-04T19:13:38Z</time></trkpt>
<trkpt lat="50.365082" lon="3.825460"><time>2026-05-04T19:23:38Z</time></trkpt>
<trkpt lat="50.365036" lon="3.825627"><time>2026-05-04T19:33:38Z</time></trkpt>
<trkpt lat="50.364968" lon="3.825796"><time>2026-05-04T19:43:38Z</time></trkpt>
<trkpt lat="50.364843" lon="3.826062"><time>2026-05-04T19:53:38Z</time></trkpt>
<trkpt lat="50.364720" lon="3.826250"><time>2026-05-04T20:03:38Z</time></trkpt>
<trkpt lat="50.364617" lon="3.826395"><time>2026-05-04T20:13:38Z</time></trkpt>
<trkpt lat="50.364455" lon="3.826569"><time>2026-05-04T20:23:38Z</time></trkpt>
<trkpt lat="50.364179" lon="3.826843"><time>2026-05-04T20:33:38Z</time></trkpt>
<trkpt lat="50.363741" lon="3.827258"><time>2026-05-04T20:43:38Z</time></trkpt>
<trkpt lat="50.363428" lon="3.827529"><time>2026-05-04T20:53:38Z</time></trkpt>
<trkpt lat="50.363259" lon="3.827687"><time>2026-05-04T21:03:38Z</time></trkpt>
<trkpt lat="50.363124" lon="3.827838"><time>2026-05-04T21:13:38Z</time></trkpt>
<trkpt lat="50.362978" lon="3.828033"><time>2026-05-04T21:23:38Z</time></trkpt>
<trkpt lat="50.362804" lon="3.828253"><time>2026-05-04T21:33:38Z</time></trkpt>
<trkpt lat="50.362424" lon="3.828720"><time>2026-05-04T21:43:38Z</time></trkpt>
<trkpt lat="50.362285" lon="3.828908"><time>2026-05-04T21:53:38Z</time></trkpt>
<trkpt lat="50.362171" lon="3.829106"><time>2026-05-04T22:03:38Z</time></trkpt>
<trkpt lat="50.361974" lon="3.829522"><time>2026-05-04T22:13:38Z</time></trkpt>
<trkpt lat="50.361799" lon="3.829868"><time>2026-05-04T22:23:38Z</time></trkpt>
<trkpt lat="50.361674" lon="3.830107"><time>2026-05-04T22:33:38Z</time></trkpt>
<trkpt lat="50.361599" lon="3.830222"><time>2026-05-04T22:43:38Z</time></trkpt>
<trkpt lat="50.361462" lon="3.830370"><time>2026-05-04T22:53:38Z</time></trkpt>
<trkpt lat="50.361312" lon="3.830531"><time>2026-05-04T23:03:38Z</time></trkpt>
<trkpt lat="50.361156" lon="3.830667"><time>2026-05-04T23:13:38Z</time></trkpt>
<trkpt lat="50.360903" lon="3.830860"><time>2026-05-04T23:23:38Z</time></trkpt>
<trkpt lat="50.360750" lon="3.830973"><time>2026-05-04T23:33:38Z</time></trkpt>
<trkpt lat="50.360614" lon="3.831046"><time>2026-05-04T23:43:38Z</time></trkpt>
<trkpt lat="50.360518" lon="3.831072"><time>2026-05-04T23:53:38Z</time></trkpt>
<trkpt lat="50.360425" lon="3.831078"><time>2026-05-05T00:03:38Z</time></trkpt>
<trkpt lat="50.360331" lon="3.831062"><time>2026-05-05T00:13:38Z</time></trkpt>
<trkpt lat="50.360230" lon="3.831027"><time>2026-05-05T00:23:38Z</time></trkpt>
</trkseg>
</trk>
</gpx>